createdAt,value
2019-03-28T00:01:12.805Z,9.80
2019-03-28T00:03:43.180Z,10.40
2019-03-28T00:06:13.576Z,11.60
2019-03-28T00:08:43.863Z,10.33
2019-03-28T00:11:14.330Z,11.37
2019-03-28T00:13:44.800Z,10.77
2019-03-28T00:16:15.172Z,10.17
2019-03-28T00:18:46.025Z,11.47
2019-03-28T00:21:16.414Z,10.07
2019-03-28T00:24:18.356Z,10.40
2019-03-28T00:26:48.799Z,9.87
2019-03-28T00:29:19.213Z,9.90
2019-03-28T00:31:50.554Z,11.30
2019-03-28T00:34:21.016Z,12.10
2019-03-28T00:36:51.591Z,10.40
2019-03-28T00:39:22.059Z,11.00
2019-03-28T00:41:52.616Z,11.00
2019-03-28T00:44:23.013Z,10.67
2019-03-28T00:46:53.504Z,11.70
2019-03-28T00:49:23.960Z,12.03
2019-03-28T00:51:54.725Z,10.27
2019-03-28T00:54:25.484Z,12.20
2019-03-28T00:56:56.396Z,11.33
2019-03-28T00:59:27.320Z,11.60
2019-03-28T01:01:57.841Z,10.97
2019-03-28T01:04:28.286Z,11.03
2019-03-28T01:06:59.615Z,10.00
2019-03-28T01:09:30.114Z,11.00
2019-03-28T01:12:00.575Z,12.13
2019-03-28T01:14:31.047Z,11.63
2019-03-28T01:17:01.345Z,12.07
2019-03-28T01:19:31.909Z,11.13
2019-03-28T01:22:02.471Z,11.77
2019-03-28T01:24:32.828Z,10.90
2019-03-28T01:27:03.336Z,10.83
2019-03-28T01:29:34.541Z,11.83
2019-03-28T01:32:04.957Z,11.60
2019-03-28T01:34:35.323Z,11.77
2019-03-28T01:37:05.902Z,12.00
2019-03-28T01:39:36.402Z,11.83
2019-03-28T01:42:06.936Z,11.73
2019-03-28T01:44:37.534Z,11.13
2019-03-28T01:47:08.884Z,12.20
2019-03-28T01:49:39.271Z,12.47
2019-03-28T01:52:09.903Z,12.33
2019-03-28T01:54:40.292Z,11.97
2019-03-28T01:57:12.159Z,12.50
2019-03-28T01:59:42.972Z,12.57
2019-03-28T02:02:13.743Z,11.80
2019-03-28T02:04:44.103Z,12.10
2019-03-28T02:07:14.910Z,12.43
2019-03-28T02:09:45.586Z,11.70
2019-03-28T02:12:16.083Z,12.73
2019-03-28T02:14:47.051Z,13.17
2019-03-28T02:17:17.441Z,12.43
2019-03-28T02:19:47.912Z,13.47
2019-03-28T02:22:18.402Z,13.00
2019-03-28T02:24:49.960Z,12.57
2019-03-28T02:27:24.354Z,12.80
2019-03-28T02:29:53.660Z,13.30
2019-03-28T02:32:24.465Z,12.63
2019-03-28T02:34:54.967Z,12.43
2019-03-28T02:37:25.398Z,13.00
2019-03-28T02:39:56.830Z,12.53
2019-03-28T02:42:27.934Z,13.30
2019-03-28T02:44:58.585Z,13.50
2019-03-28T02:47:29.116Z,13.10
2019-03-28T02:49:59.584Z,12.70
2019-03-28T02:52:30.189Z,13.70
2019-03-28T02:55:00.764Z,12.63
2019-03-28T02:57:41.077Z,13.83
2019-03-28T03:00:03.422Z,13.03
2019-03-28T03:02:34.411Z,13.90
2019-03-28T03:05:05.039Z,12.97
2019-03-28T03:07:35.559Z,12.60
2019-03-28T03:10:06.666Z,13.57
2019-03-28T03:12:37.253Z,12.93
2019-03-28T03:15:08.109Z,13.47
2019-03-28T03:17:38.993Z,12.70
2019-03-28T03:20:09.845Z,13.67
2019-03-28T03:22:40.343Z,13.30
2019-03-28T03:25:10.810Z,12.63
2019-03-28T03:27:56.792Z,14.60
2019-03-28T03:30:13.591Z,13.67
2019-03-28T03:32:44.245Z,14.07
2019-03-28T03:35:15.824Z,12.10
2019-03-28T03:37:46.339Z,13.53
2019-03-28T03:40:16.906Z,13.10
2019-03-28T03:42:47.305Z,14.60
2019-03-28T03:45:17.685Z,14.57
2019-03-28T03:47:48.103Z,15.07
2019-03-28T03:50:27.601Z,13.87
2019-03-28T03:52:58.083Z,14.17
2019-03-28T03:55:28.863Z,14.10
2019-03-28T03:58:14.468Z,14.53
2019-03-28T04:00:34.008Z,12.40
2019-03-28T04:03:05.257Z,12.70
2019-03-28T04:05:35.653Z,12.67
2019-03-28T04:08:06.220Z,12.23
2019-03-28T04:10:37.086Z,12.57
2019-03-28T04:13:07.965Z,12.67
2019-03-28T04:15:38.539Z,12.10
2019-03-28T04:18:08.865Z,13.27
2019-03-28T04:20:39.313Z,13.77
2019-03-28T04:23:09.849Z,12.90
2019-03-28T04:25:40.315Z,12.67
2019-03-28T04:28:10.826Z,13.43
2019-03-28T04:30:41.227Z,12.87
2019-03-28T04:33:12.463Z,13.33
2019-03-28T04:35:42.871Z,13.37
2019-03-28T04:38:13.577Z,14.90
2019-03-28T04:40:43.927Z,14.60
2019-03-28T04:43:14.266Z,13.97
2019-03-28T04:45:44.602Z,13.93
2019-03-28T04:48:15.049Z,14.27
2019-03-28T04:50:45.526Z,14.63
2019-03-28T04:53:15.786Z,15.17
2019-03-28T04:55:46.322Z,15.03
2019-03-28T04:58:21.579Z,15.03
2019-03-28T05:00:51.092Z,15.77
2019-03-28T05:03:21.606Z,16.63
2019-03-28T05:05:52.095Z,15.77
2019-03-28T05:08:22.552Z,15.77
2019-03-28T05:10:53.110Z,15.67
2019-03-28T05:13:23.605Z,15.50
2019-03-28T05:15:53.979Z,14.97
2019-03-28T05:18:24.762Z,14.40
2019-03-28T05:20:55.530Z,14.30
2019-03-28T05:23:26.634Z,15.70
2019-03-28T05:25:57.016Z,16.33
2019-03-28T05:29:01.480Z,16.93
2019-03-28T05:31:31.928Z,15.47
2019-03-28T05:34:02.407Z,17.90
2019-03-28T05:36:32.873Z,17.83
2019-03-28T05:39:04.121Z,16.93
2019-03-28T05:41:34.922Z,16.63
2019-03-28T05:44:05.399Z,16.57
2019-03-28T05:46:35.814Z,15.47
2019-03-28T05:49:06.156Z,16.17
2019-03-28T05:51:37.624Z,15.87
2019-03-28T05:54:08.412Z,15.10
2019-03-28T05:56:38.926Z,15.57
2019-03-28T05:59:11.233Z,15.57
2019-03-28T06:01:42.014Z,16.63
2019-03-28T06:04:12.740Z,16.00
2019-03-28T06:06:43.202Z,15.37
2019-03-28T06:09:13.728Z,16.17
2019-03-28T06:11:44.498Z,15.30
2019-03-28T06:14:15.262Z,16.57
2019-03-28T06:16:45.949Z,16.43
2019-03-28T06:19:16.240Z,15.73
2019-03-28T06:21:47.473Z,15.63
2019-03-28T06:24:18.325Z,14.57
2019-03-28T06:26:50.122Z,16.43
2019-03-28T06:29:24.032Z,15.67
2019-03-28T06:31:55.633Z,16.47
2019-03-28T06:34:26.445Z,15.30
2019-03-28T06:36:57.207Z,14.77
2019-03-28T06:39:27.687Z,18.03
2019-03-28T06:41:58.392Z,16.60
2019-03-28T06:44:29.441Z,16.53
2019-03-28T06:46:59.876Z,16.60
2019-03-28T06:49:30.259Z,17.63
2019-03-28T06:52:00.790Z,16.17
2019-03-28T06:54:31.339Z,14.00
2019-03-28T06:57:01.741Z,13.77
2019-03-28T06:59:37.656Z,13.43
2019-03-28T07:02:04.307Z,13.23
2019-03-28T07:04:34.739Z,15.00
2019-03-28T07:07:05.056Z,12.77
2019-03-28T07:09:35.408Z,12.73
2019-03-28T07:12:05.942Z,12.93
2019-03-28T07:14:36.363Z,13.97
2019-03-28T07:17:06.776Z,14.20
2019-03-28T07:19:37.516Z,12.87
2019-03-28T07:22:07.927Z,13.10
2019-03-28T07:24:38.389Z,12.73
2019-03-28T07:27:08.935Z,12.20
2019-03-28T07:29:50.322Z,12.53
2019-03-28T07:32:12.066Z,12.97
2019-03-28T07:34:42.537Z,10.80
2019-03-28T07:37:12.842Z,11.30
2019-03-28T07:39:43.609Z,10.60
2019-03-28T07:42:13.920Z,9.67
2019-03-28T07:44:44.458Z,11.13
2019-03-28T07:47:16.015Z,8.93
2019-03-28T07:49:46.503Z,9.47
2019-03-28T07:52:19.885Z,10.93
2019-03-28T07:54:49.404Z,9.20
2019-03-28T07:57:19.815Z,10.37
2019-03-28T08:00:03.270Z,10.10
2019-03-28T08:02:22.437Z,8.53
2019-03-28T08:04:52.815Z,9.57
2019-03-28T08:07:23.547Z,10.13
2019-03-28T08:09:53.901Z,10.93
2019-03-28T08:12:24.297Z,9.27
2019-03-28T08:14:54.779Z,8.77
2019-03-28T08:17:25.376Z,9.13
2019-03-28T08:19:55.746Z,9.03
2019-03-28T08:22:29.501Z,8.63
2019-03-28T08:24:58.709Z,9.00
2019-03-28T08:27:29.175Z,8.43
2019-03-28T08:30:00.192Z,7.87
2019-03-28T08:32:31.086Z,8.33
2019-03-28T08:35:01.447Z,8.55
2019-03-28T08:37:32.947Z,8.23
2019-03-28T08:40:03.583Z,8.63
2019-03-28T08:42:34.008Z,7.58
2019-03-28T08:45:05.305Z,7.05
2019-03-28T08:47:35.710Z,8.55
2019-03-28T08:50:06.867Z,6.47
2019-03-28T08:52:38.404Z,7.47
2019-03-28T08:55:10.089Z,6.60
2019-03-28T08:57:41.316Z,6.05
2019-03-28T09:00:12.230Z,5.85
2019-03-28T09:02:42.585Z,7.25
2019-03-28T09:05:13.258Z,6.83
2019-03-28T09:07:44.074Z,6.05
2019-03-28T09:10:14.531Z,7.40
2019-03-28T09:12:45.524Z,6.83
2019-03-28T09:15:16.765Z,6.22
2019-03-28T09:17:48.396Z,6.42
2019-03-28T09:20:19.020Z,6.45
2019-03-28T09:22:49.558Z,5.67
2019-03-28T09:25:20.024Z,5.95
2019-03-28T09:27:51.784Z,6.40
2019-03-28T09:30:48.613Z,6.22
2019-03-28T09:33:14.693Z,5.83
2019-03-28T09:35:45.509Z,5.12
2019-03-28T09:38:16.345Z,5.10
2019-03-28T09:40:46.860Z,4.92
2019-03-28T09:43:17.525Z,6.20
2019-03-28T09:45:48.075Z,5.47
2019-03-28T09:48:18.521Z,5.22
2019-03-28T09:50:49.084Z,5.60
2019-03-28T09:53:19.480Z,6.15
2019-03-28T09:55:49.813Z,4.92
2019-03-28T09:58:20.413Z,5.10
2019-03-28T10:01:02.244Z,5.35
2019-03-28T10:03:23.810Z,5.53
2019-03-28T10:05:54.644Z,5.00
2019-03-28T10:08:25.059Z,3.80
2019-03-28T10:10:55.500Z,4.42
2019-03-28T10:13:25.881Z,3.62
2019-03-28T10:15:57.478Z,3.77
2019-03-28T10:18:30.094Z,3.20
2019-03-28T10:21:00.259Z,3.70
2019-03-28T10:23:30.740Z,4.28
2019-03-28T10:26:02.212Z,3.75
2019-03-28T10:28:32.979Z,3.80
2019-03-28T10:31:15.915Z,3.80
2019-03-28T10:33:35.835Z,3.65
2019-03-28T10:36:06.154Z,2.83
2019-03-28T10:38:36.560Z,3.40
2019-03-28T10:41:07.050Z,3.15
2019-03-28T10:43:37.569Z,3.22
2019-03-28T10:46:08.191Z,3.92
2019-03-28T10:48:38.726Z,2.67
2019-03-28T10:51:09.251Z,2.50
2019-03-28T10:53:40.065Z,2.67
2019-03-28T10:56:20.889Z,2.37
2019-03-28T10:58:42.610Z,2.98
2019-03-28T11:01:16.523Z,3.10
2019-03-28T11:03:46.031Z,3.00
2019-03-28T11:06:16.524Z,2.30
2019-03-28T11:08:46.995Z,1.72
2019-03-28T11:11:17.519Z,2.30
2019-03-28T11:13:48.784Z,2.30
2019-03-28T11:16:19.582Z,1.80
2019-03-28T11:18:50.148Z,3.35
2019-03-28T11:21:20.774Z,2.77
2019-03-28T11:23:51.516Z,2.75
2019-03-28T11:26:22.028Z,3.02
2019-03-28T11:28:52.851Z,2.45
2019-03-28T11:31:23.782Z,2.75
2019-03-28T11:33:55.130Z,2.67
2019-03-28T11:36:25.769Z,2.72
2019-03-28T11:38:56.524Z,2.30
2019-03-28T11:41:27.626Z,2.40
2019-03-28T11:43:58.441Z,2.30
2019-03-28T11:46:28.975Z,3.00
2019-03-28T11:49:00.257Z,2.70
2019-03-28T11:51:30.820Z,2.65
2019-03-28T11:54:02.287Z,2.70
2019-03-28T11:56:32.727Z,2.30
2019-03-28T11:59:04.636Z,2.62
2019-03-28T12:01:35.205Z,2.62
2019-03-28T12:04:05.907Z,2.83
2019-03-28T12:06:36.217Z,3.12
2019-03-28T12:09:08.186Z,2.75
2019-03-28T12:11:39.024Z,3.08
2019-03-28T12:14:09.307Z,3.25
2019-03-28T12:16:40.703Z,3.30
2019-03-28T12:19:11.140Z,3.22
2019-03-28T12:21:41.660Z,3.00
2019-03-28T12:24:12.179Z,3.22
2019-03-28T12:26:42.591Z,3.42
2019-03-28T12:29:13.458Z,3.33
2019-03-28T12:31:44.068Z,3.52
2019-03-28T12:34:14.459Z,3.37
2019-03-28T12:36:44.890Z,3.62
2019-03-28T12:39:15.899Z,3.80
2019-03-28T12:41:46.199Z,3.85
2019-03-28T12:44:16.753Z,3.52
2019-03-28T12:46:47.371Z,4.37
2019-03-28T12:49:17.939Z,4.12
2019-03-28T12:51:48.439Z,4.30
2019-03-28T12:54:18.846Z,4.25
2019-03-28T12:56:49.372Z,4.45
2019-03-28T12:59:19.724Z,4.42
2019-03-28T13:01:50.035Z,5.10
2019-03-28T13:04:20.452Z,4.83
2019-03-28T13:06:50.897Z,4.72
2019-03-28T13:09:21.656Z,3.52
2019-03-28T13:11:52.031Z,4.20
2019-03-28T13:14:22.767Z,4.42
2019-03-28T13:16:53.254Z,4.35
2019-03-28T13:19:23.710Z,4.30
2019-03-28T13:21:54.263Z,4.28
2019-03-28T13:24:24.757Z,4.10
2019-03-28T13:26:55.253Z,3.80
2019-03-28T13:29:25.912Z,3.90
2019-03-28T13:31:56.275Z,4.50
2019-03-28T13:34:26.945Z,4.37
2019-03-28T13:36:57.539Z,4.20
2019-03-28T13:39:28.435Z,3.77
2019-03-28T13:41:58.828Z,3.87
2019-03-28T13:44:30.330Z,4.37
2019-03-28T13:47:00.756Z,4.60
2019-03-28T13:49:31.142Z,4.10
2019-03-28T13:52:01.665Z,4.85
2019-03-28T13:54:32.079Z,4.40
2019-03-28T13:57:02.524Z,4.35
2019-03-28T13:59:35.383Z,4.30
2019-03-28T14:02:06.891Z,4.53
2019-03-28T14:04:37.223Z,4.20
2019-03-28T14:07:07.691Z,4.17
2019-03-28T14:09:38.203Z,3.75
2019-03-28T14:12:09.009Z,4.30
2019-03-28T14:14:40.082Z,4.05
2019-03-28T14:17:10.719Z,3.45
2019-03-28T14:19:41.279Z,4.08
2019-03-28T14:22:11.691Z,3.45
2019-03-28T14:24:42.232Z,3.60
2019-03-28T14:27:13.698Z,3.72
2019-03-28T14:29:44.471Z,3.40
2019-03-28T14:32:14.890Z,3.98
2019-03-28T14:34:45.594Z,3.70
2019-03-28T14:37:17.231Z,3.83
2019-03-28T14:39:49.365Z,3.42
2019-03-28T14:42:20.201Z,3.37
2019-03-28T14:44:50.725Z,3.30
2019-03-28T14:47:21.122Z,3.25
2019-03-28T14:49:51.908Z,3.30
2019-03-28T14:52:23.670Z,2.95
2019-03-28T14:54:54.143Z,3.55
2019-03-28T14:57:24.800Z,3.98
2019-03-28T14:59:57.163Z,3.83
2019-03-28T15:02:27.643Z,3.85
2019-03-28T15:04:58.435Z,3.52
2019-03-28T15:07:29.429Z,3.50
2019-03-28T15:09:59.890Z,4.00
2019-03-28T15:12:30.390Z,3.87
2019-03-28T15:15:00.795Z,4.70
2019-03-28T15:17:31.095Z,3.60
2019-03-28T15:20:01.954Z,4.15
2019-03-28T15:22:32.398Z,4.37
2019-03-28T15:25:02.799Z,4.83
2019-03-28T15:27:33.625Z,4.40
2019-03-28T15:30:04.335Z,4.37
2019-03-28T15:32:35.509Z,4.35
2019-03-28T15:35:06.178Z,4.55
2019-03-28T15:37:36.578Z,4.50
2019-03-28T15:40:08.721Z,4.58
2019-03-28T15:42:39.367Z,4.40
2019-03-28T15:45:09.934Z,4.70
2019-03-28T15:47:40.403Z,4.72
2019-03-28T15:50:11.099Z,5.50
2019-03-28T15:52:41.996Z,5.20
2019-03-28T15:55:14.731Z,5.10
2019-03-28T15:57:44.591Z,4.65
2019-03-28T16:00:15.478Z,5.12
2019-03-28T16:02:45.762Z,5.22
2019-03-28T16:05:16.602Z,5.33
2019-03-28T16:07:47.049Z,5.05
2019-03-28T16:10:18.818Z,4.87
2019-03-28T16:12:49.229Z,5.35
2019-03-28T16:15:19.962Z,5.08
2019-03-28T16:17:50.778Z,4.78
2019-03-28T16:20:21.291Z,4.80
2019-03-28T16:22:51.760Z,4.75
2019-03-28T16:25:23.230Z,4.90
2019-03-28T16:27:53.547Z,4.87
2019-03-28T16:30:35.784Z,5.72
2019-03-28T16:33:06.749Z,5.03
2019-03-28T16:35:37.331Z,5.70
2019-03-28T16:38:08.108Z,5.08
2019-03-28T16:40:38.438Z,5.40
2019-03-28T16:43:08.985Z,5.53
2019-03-28T16:45:39.627Z,5.40
2019-03-28T16:48:10.270Z,5.50
2019-03-28T16:50:41.119Z,5.00
2019-03-28T16:53:11.679Z,5.87
2019-03-28T16:55:42.307Z,5.62
2019-03-28T16:58:13.045Z,6.10
2019-03-28T17:00:43.710Z,6.15
2019-03-28T17:03:14.046Z,5.83
2019-03-28T17:05:47.166Z,5.80
2019-03-28T17:08:17.799Z,6.37
2019-03-28T17:10:51.457Z,7.60
2019-03-28T17:13:22.050Z,12.90
2019-03-28T17:15:52.853Z,14.18
2019-03-28T17:18:23.358Z,12.82
2019-03-28T17:20:54.174Z,15.98
2019-03-28T17:23:24.631Z,36.85
2019-03-28T17:25:55.128Z,32.33
2019-03-28T17:28:26.798Z,9.33
2019-03-28T17:30:57.306Z,6.28
2019-03-28T17:33:27.660Z,8.35
2019-03-28T17:35:58.163Z,9.08
2019-03-28T17:38:28.882Z,7.50
2019-03-28T17:40:59.207Z,5.90
2019-03-28T17:43:29.625Z,5.65
2019-03-28T17:46:00.092Z,5.70
2019-03-28T17:48:30.984Z,5.85
2019-03-28T17:51:01.726Z,5.67
2019-03-28T17:53:32.229Z,5.65
2019-03-28T17:56:02.827Z,5.70
2019-03-28T17:58:33.290Z,6.20
2019-03-28T18:01:04.158Z,5.00
2019-03-28T18:03:34.822Z,5.85
2019-03-28T18:06:05.299Z,5.53
2019-03-28T18:08:35.850Z,5.67
2019-03-28T18:11:06.291Z,5.35
2019-03-28T18:13:36.670Z,7.72
2019-03-28T18:16:07.693Z,9.48
2019-03-28T18:18:38.265Z,9.93
2019-03-28T18:21:08.640Z,11.50
2019-03-28T18:23:39.063Z,7.40
2019-03-28T18:26:09.638Z,7.40
2019-03-28T18:28:40.491Z,10.32
2019-03-28T18:31:11.692Z,7.12
2019-03-28T18:33:42.523Z,7.28
2019-03-28T18:36:12.947Z,6.95
2019-03-28T18:38:43.642Z,6.35
2019-03-28T18:41:14.345Z,7.17
2019-03-28T18:43:44.810Z,6.27
2019-03-28T18:46:15.225Z,5.83
2019-03-28T18:48:46.612Z,5.92
2019-03-28T18:51:17.603Z,5.55
2019-03-28T18:53:48.354Z,7.60
2019-03-28T18:56:18.834Z,7.42
2019-03-28T18:58:49.266Z,7.10
2019-03-28T19:01:19.984Z,8.05
2019-03-28T19:03:50.874Z,17.77
2019-03-28T19:06:21.469Z,22.30
2019-03-28T19:08:51.891Z,24.47
2019-03-28T19:11:22.607Z,10.60
2019-03-28T19:13:53.659Z,9.43
2019-03-28T19:16:24.082Z,10.17
2019-03-28T19:18:54.512Z,12.00
2019-03-28T19:21:25.258Z,11.17
2019-03-28T19:23:55.763Z,11.55
2019-03-28T19:26:26.140Z,11.00
2019-03-28T19:28:57.218Z,10.35
2019-03-28T19:31:27.598Z,9.87
2019-03-28T19:33:58.112Z,8.85
2019-03-28T19:36:29.572Z,8.65
2019-03-28T19:39:00.263Z,9.10
2019-03-28T19:41:30.991Z,8.67
2019-03-28T19:44:02.883Z,9.35
2019-03-28T19:46:33.276Z,8.70
2019-03-28T19:49:03.768Z,9.68
2019-03-28T19:51:34.286Z,9.73
2019-03-28T19:54:05.348Z,12.53
2019-03-28T19:56:35.988Z,12.13
2019-03-28T19:59:07.010Z,10.03
2019-03-28T20:01:37.659Z,9.77
2019-03-28T20:04:08.962Z,12.13
2019-03-28T20:06:39.513Z,13.00
2019-03-28T20:09:16.503Z,12.53
2019-03-28T20:11:42.995Z,13.22
2019-03-28T20:14:13.545Z,12.55
2019-03-28T20:16:44.197Z,10.37
2019-03-28T20:19:17.731Z,9.87
2019-03-28T20:21:47.454Z,10.72
2019-03-28T20:24:17.987Z,9.78
2019-03-28T20:26:48.610Z,10.50
2019-03-28T20:29:19.445Z,9.68
2019-03-28T20:31:50.098Z,9.78
2019-03-28T20:34:20.596Z,9.63
2019-03-28T20:36:52.862Z,9.15
2019-03-28T20:39:23.930Z,8.67
2019-03-28T20:41:54.315Z,9.00
2019-03-28T20:44:24.857Z,9.70
2019-03-28T20:46:58.723Z,8.93
2019-03-28T20:49:27.822Z,9.23
2019-03-28T20:51:58.384Z,8.73
2019-03-28T20:54:28.897Z,9.20
2019-03-28T20:56:59.739Z,9.55
2019-03-28T20:59:30.294Z,9.25
2019-03-28T21:02:01.261Z,9.43
2019-03-28T21:04:32.108Z,9.67
2019-03-28T21:07:02.998Z,8.70
2019-03-28T21:09:33.377Z,9.00
2019-03-28T21:12:03.816Z,9.53
2019-03-28T21:14:34.244Z,9.18
2019-03-28T21:17:05.236Z,8.80
2019-03-28T21:19:35.890Z,9.00
2019-03-28T21:22:06.371Z,9.40
2019-03-28T21:24:36.776Z,9.50
2019-03-28T21:27:07.338Z,10.10
2019-03-28T21:29:48.305Z,9.05
2019-03-28T21:32:10.877Z,9.53
2019-03-28T21:34:41.370Z,8.35
2019-03-28T21:37:12.398Z,8.83
2019-03-28T21:39:42.842Z,9.20
2019-03-28T21:42:13.230Z,8.93
2019-03-28T21:44:44.113Z,11.03
2019-03-28T21:47:14.578Z,12.10
2019-03-28T21:49:44.997Z,10.93
2019-03-28T21:52:15.439Z,10.23
2019-03-28T21:54:46.118Z,9.63
2019-03-28T21:57:16.474Z,9.47
2019-03-28T21:59:47.339Z,9.07
2019-03-28T22:02:18.068Z,9.70
2019-03-28T22:04:48.651Z,9.60
2019-03-28T22:07:18.982Z,10.48
2019-03-28T22:09:49.523Z,9.50
2019-03-28T22:12:19.974Z,10.47
2019-03-28T22:14:50.556Z,10.73
2019-03-28T22:17:20.967Z,10.90
2019-03-28T22:19:51.819Z,9.20
2019-03-28T22:22:22.541Z,9.90
2019-03-28T22:24:53.134Z,10.50
2019-03-28T22:27:23.819Z,9.10
2019-03-28T22:29:54.345Z,9.70
2019-03-28T22:32:24.703Z,9.25
2019-03-28T22:34:55.138Z,9.45
2019-03-28T22:37:26.171Z,10.68
2019-03-28T22:39:56.587Z,12.73
2019-03-28T22:42:27.331Z,12.50
2019-03-28T22:44:58.058Z,11.80
2019-03-28T22:47:28.498Z,10.55
2019-03-28T22:49:58.921Z,12.10
2019-03-28T22:52:29.493Z,10.68
2019-03-28T22:55:00.385Z,11.43
2019-03-28T22:57:30.869Z,11.37
2019-03-28T23:00:04.143Z,11.80
2019-03-28T23:02:35.211Z,12.10
2019-03-28T23:05:06.849Z,12.27
2019-03-28T23:07:37.288Z,13.00
2019-03-28T23:10:08.831Z,11.77
2019-03-28T23:12:39.394Z,9.43
2019-03-28T23:15:11.464Z,8.53
2019-03-28T23:17:41.968Z,9.53
2019-03-28T23:20:12.792Z,10.33
2019-03-28T23:22:44.066Z,9.93
2019-03-28T23:25:14.562Z,9.23
2019-03-28T23:27:45.040Z,9.93
2019-03-28T23:30:15.639Z,10.03
2019-03-28T23:32:46.426Z,10.07
2019-03-28T23:35:16.935Z,9.67
2019-03-28T23:37:47.318Z,9.40
2019-03-28T23:40:18.052Z,9.60
2019-03-28T23:42:48.646Z,9.63
2019-03-28T23:45:19.718Z,10.23
2019-03-28T23:47:51.472Z,10.03
2019-03-28T23:50:22.326Z,11.93
2019-03-28T23:52:52.719Z,10.40
2019-03-28T23:55:23.216Z,11.10
2019-03-28T23:57:54.546Z,12.03
